CheckWX is a tool to help pilots better visualize weather data.  It is not intended as a substitute for an official pre-flight weather briefing.

19:50:16 UTC

CYBB METAR
Pelly Bay Airport
Pelly Bay, Canada
Current

50 mins ago

CYBB 191900Z 22021KT 15SM DRSN FEW090 FEW200 M33/M37 A2983 RMK AC1CI1 SLP105
Observed
Feb-19 @ 19:00 UTC
Wind
  • 220° at 21 KTS
Visibility
15 SM
Flight Rules
VFR
Conditions
Low drifting Snow
Cloud Levels
  • Few at 9,000' AGL
  • Few at 20,000' AGL
Temperature
-33°C / -27°F
Dewpoint
-37°C / -35°F
Humidity
67%
Altimeter
29.83" Hg
Pressure
1010.5 hPa
Previous

2 hours ago

CYBB 191800Z 22023KT 15SM DRSN FEW070 SCT200 M34/M37 A2981 RMK AS2CC1 SLP098
Observed
Feb-19 @ 18:00 UTC
Wind
  • 220° at 23 KTS
Visibility
15 SM
Flight Rules
VFR
Conditions
Low drifting Snow
Cloud Levels
  • Few at 7,000' AGL
  • Scattered at 20,000' AGL
Temperature
-34°C / -29°F
Dewpoint
-37°C / -35°F
Humidity
74%
Altimeter
29.81" Hg
Pressure
1009.8 hPa
Previous

3 hours ago

CYBB 191700Z 22023KT 15SM DRSN FEW070 SCT200 M34/M38 A2982 RMK AC1CC2 SLP103
Observed
Feb-19 @ 17:00 UTC
Wind
  • 220° at 23 KTS
Visibility
15 SM
Flight Rules
VFR
Conditions
Low drifting Snow
Cloud Levels
  • Few at 7,000' AGL
  • Scattered at 20,000' AGL
Temperature
-34°C / -29°F
Dewpoint
-38°C / -36°F
Humidity
67%
Altimeter
29.82" Hg
Pressure
1010.3 hPa